Time;durP1;ratioP1;P1;durP2;ratioP2;P2;SDS_P1;SDS_P2;PMS_P1;PMS_P2;Temp;Humidity;BMP_temperature;BMP_pressure;BME280_temperature;BME280_humidity;BME280_pressure;Samples;Min_cycle;Max_cycle;Signal;HPM_P1;HPM_P2
2023/12/04 00:01:35;;;;;;;;;22.25;20.75;;;;;1.36;91.55;101188.94;5053269;28;11507;-70
2023/12/04 00:04:03;;;;;;;;;19.50;19.50;;;;;1.28;91.90;101186.06;5050149;28;11521;-70
2023/12/04 00:06:30;;;;;;;;;27.75;21.00;;;;;1.26;92.11;101195.97;5050116;28;11515;-68
2023/12/04 00:08:56;;;;;;;;;25.00;20.50;;;;;1.30;92.28;101188.56;5043174;28;11674;-69
2023/12/04 00:11:23;;;;;;;;;21.25;19.00;;;;;1.35;92.19;101186.41;5050081;28;11539;-68
2023/12/04 00:13:49;;;;;;;;;26.75;23.50;;;;;1.28;91.60;101180.75;5047708;28;11577;-69
2023/12/04 00:16:16;;;;;;;;;25.75;19.75;;;;;1.33;92.13;101188.34;5049570;28;12275;-71
2023/12/04 00:18:42;;;;;;;;;24.00;20.25;;;;;1.39;91.50;101177.22;5048946;28;11513;-69
2023/12/04 00:21:09;;;;;;;;;24.75;19.50;;;;;1.38;91.76;101173.75;5031921;28;11509;-70
2023/12/04 00:23:35;;;;;;;;;26.00;22.75;;;;;1.48;91.41;101176.47;5031697;28;11488;-69
2023/12/04 00:26:02;;;;;;;;;19.75;17.50;;;;;1.49;91.16;101165.72;5049856;28;11547;-70
2023/12/04 00:28:29;;;;;;;;;25.75;20.75;;;;;1.44;90.94;101153.81;5048896;28;11552;-69
2023/12/04 00:30:55;;;;;;;;;24.75;22.00;;;;;1.46;91.26;101151.91;5050960;28;11514;-69
2023/12/04 00:33:22;;;;;;;;;30.75;24.75;;;;;1.48;90.39;101140.16;5059583;28;11531;-70
2023/12/04 00:35:48;;;;;;;;;23.25;20.50;;;;;1.47;90.43;101149.09;5049703;28;11548;-70
2023/12/04 00:38:15;;;;;;;;;28.75;23.75;;;;;1.44;90.45;101138.75;5031270;28;11519;-70
2023/12/04 00:40:41;;;;;;;;;18.50;17.25;;;;;1.34;90.69;101148.44;5049929;28;11541;-70
2023/12/04 00:43:08;;;;;;;;;15.25;15.25;;;;;1.37;90.30;101155.28;5031777;28;11549;-69
2023/12/04 00:45:34;;;;;;;;;18.50;17.25;;;;;1.42;90.29;101147.81;5036245;28;11545;-70
2023/12/04 00:48:02;;;;;;;;;24.75;20.75;;;;;1.45;90.26;101160.81;5047780;28;11511;-70
2023/12/04 00:50:29;;;;;;;;;22.75;20.00;;;;;1.42;90.48;101153.13;5052127;28;11612;-69
2023/12/04 00:52:55;;;;;;;;;24.50;21.00;;;;;1.30;90.70;101151.44;5049739;28;11525;-70
2023/12/04 00:55:22;;;;;;;;;22.50;18.50;;;;;1.34;90.50;101144.97;5049523;28;11541;-69
2023/12/04 00:57:48;;;;;;;;;26.75;22.00;;;;;1.45;90.66;101143.06;5048708;28;11551;-69
2023/12/04 01:00:15;;;;;;;;;22.25;18.75;;;;;1.53;90.15;101138.94;5050585;28;11534;-69
2023/12/04 01:02:42;;;;;;;;;23.00;21.75;;;;;1.52;90.32;101122.19;5048794;28;11517;-68
2023/12/04 01:05:09;;;;;;;;;24.50;19.25;;;;;1.42;90.15;101127.44;5045040;28;11529;-69
2023/12/04 01:07:35;;;;;;;;;25.00;24.25;;;;;1.37;90.39;101120.81;5050145;28;11496;-70
2023/12/04 01:10:03;;;;;;;;;25.00;20.00;;;;;1.41;90.37;101114.28;5048105;28;11586;-69
2023/12/04 01:12:30;;;;;;;;;18.75;18.75;;;;;1.45;90.48;101113.06;5031014;28;11534;-70
2023/12/04 01:14:56;;;;;;;;;21.75;19.00;;;;;1.43;90.48;101107.88;5049710;28;11624;-68
2023/12/04 01:17:23;;;;;;;;;21.75;16.50;;;;;1.49;90.09;101110.00;5031476;28;11598;-68
2023/12/04 01:19:49;;;;;;;;;25.00;19.50;;;;;1.48;90.89;101104.84;5045252;28;11662;-69
2023/12/04 01:22:16;;;;;;;;;26.75;20.75;;;;;1.47;90.36;101101.34;5048027;28;11495;-69
2023/12/04 01:24:42;;;;;;;;;18.75;16.00;;;;;1.50;90.60;101102.91;5034051;28;12227;-69
2023/12/04 01:27:09;;;;;;;;;27.00;22.50;;;;;1.49;90.73;101099.41;5047847;28;11574;-68
2023/12/04 01:29:35;;;;;;;;;25.25;20.50;;;;;1.45;90.87;101097.13;5014770;28;11510;-69
2023/12/04 01:32:02;;;;;;;;;19.50;19.50;;;;;1.51;91.48;101098.44;5065891;28;11503;-69
2023/12/04 01:34:28;;;;;;;;;20.50;18.00;;;;;1.59;90.54;101101.28;5054256;28;11602;-69
2023/12/04 01:36:55;;;;;;;;;20.50;20.00;;;;;1.54;91.08;101090.22;5049851;28;11528;-68
2023/12/04 01:39:22;;;;;;;;;20.00;16.50;;;;;1.60;90.97;101087.06;5052396;28;11570;-69
2023/12/04 01:41:48;;;;;;;;;19.50;18.25;;;;;1.45;91.18;101090.00;5051582;28;11539;-69
2023/12/04 01:44:15;;;;;;;;;16.75;16.00;;;;;1.49;91.55;101086.13;5050161;28;12454;-70
2023/12/04 01:46:42;;;;;;;;;22.75;22.75;;;;;1.43;91.42;101088.47;5071124;28;11615;-69
2023/12/04 01:49:09;;;;;;;;;26.00;20.00;;;;;1.43;91.47;101091.13;5034692;28;11539;-70
2023/12/04 01:51:36;;;;;;;;;28.00;22.00;;;;;1.49;91.38;101080.00;5052365;28;11530;-69
2023/12/04 01:54:05;;;;;;;;;21.25;19.75;;;;;1.48;91.38;101073.00;5047830;28;11515;-70
2023/12/04 01:56:34;;;;;;;;;28.00;23.75;;;;;1.41;91.41;101077.97;5052515;28;11476;-69
2023/12/04 01:59:00;;;;;;;;;22.00;20.25;;;;;1.40;91.60;101072.81;5042318;28;11521;-70
2023/12/04 02:01:27;;;;;;;;;22.75;17.75;;;;;1.48;91.86;101068.53;5054412;28;11504;-69
2023/12/04 02:03:54;;;;;;;;;30.25;24.50;;;;;1.51;91.25;101072.75;5053399;28;12208;-68
2023/12/04 02:06:21;;;;;;;;;21.50;20.25;;;;;1.52;91.36;101062.97;5018030;28;11515;-70
2023/12/04 02:08:48;;;;;;;;;27.50;24.50;;;;;1.54;91.53;101058.38;5046446;28;11550;-70
2023/12/04 02:11:15;;;;;;;;;31.75;23.25;;;;;1.51;91.13;101066.63;5050496;28;11502;-69
2023/12/04 02:13:41;;;;;;;;;22.75;21.00;;;;;1.49;91.31;101056.94;5046892;28;11506;-70
2023/12/04 02:16:11;;;;;;;;;23.25;19.25;;;;;1.42;91.77;101063.78;5045370;28;12514;-68
2023/12/04 02:18:38;;;;;;;;;30.25;22.25;;;;;1.46;91.19;101061.69;5051653;28;11521;-70
2023/12/04 02:21:05;;;;;;;;;28.75;20.25;;;;;1.54;91.13;101061.91;5053032;28;11590;-69
2023/12/04 02:23:31;;;;;;;;;25.00;23.75;;;;;1.44;91.17;101051.19;5051803;28;11567;-70
2023/12/04 02:26:02;;;;;;;;;20.50;19.50;;;;;1.52;90.81;101049.72;5052138;28;11550;-70
2023/12/04 02:28:36;;;;;;;;;23.50;20.00;;;;;1.56;90.63;101045.84;5046298;28;11533;-69
2023/12/04 02:31:04;;;;;;;;;22.25;17.50;;;;;1.54;90.63;101045.09;5051764;28;11531;-70
2023/12/04 02:33:33;;;;;;;;;24.75;20.25;;;;;1.56;90.83;101040.53;5033745;28;11515;-71
2023/12/04 02:36:02;;;;;;;;;27.50;22.50;;;;;1.54;90.87;101038.03;5049902;28;11625;-70
2023/12/04 02:38:29;;;;;;;;;22.75;20.75;;;;;1.49;90.59;101035.72;5046154;28;11511;-69
2023/12/04 02:40:56;;;;;;;;;20.75;18.50;;;;;1.51;90.51;101029.47;5032823;28;11593;-70
2023/12/04 02:43:23;;;;;;;;;23.00;20.75;;;;;1.51;90.40;101021.53;5033711;28;11573;-69
2023/12/04 02:45:49;;;;;;;;;35.00;22.25;;;;;1.47;90.57;101032.38;5050962;28;11503;-72
2023/12/04 02:48:16;;;;;;;;;25.25;20.25;;;;;1.55;90.51;101022.94;5047089;28;11495;-69
2023/12/04 02:50:43;;;;;;;;;25.00;22.50;;;;;1.47;91.09;101023.59;5048516;28;11504;-70
2023/12/04 02:53:09;;;;;;;;;24.50;22.50;;;;;1.55;90.21;101015.81;5038803;28;12357;-69
2023/12/04 02:55:35;;;;;;;;;20.25;18.00;;;;;1.56;90.08;101006.88;5052256;28;11504;-69
2023/12/04 02:58:02;;;;;;;;;22.00;15.50;;;;;1.55;90.27;101002.56;5049386;28;11694;-70
2023/12/04 03:00:28;;;;;;;;;24.00;19.75;;;;;1.54;90.01;100995.56;5054366;28;11590;-69
2023/12/04 03:02:55;;;;;;;;;24.00;21.25;;;;;1.58;90.05;100993.47;5050406;28;11506;-69
2023/12/04 03:05:22;;;;;;;;;19.75;17.50;;;;;1.57;90.05;100989.97;5033107;28;11504;-68
2023/12/04 03:07:49;;;;;;;;;22.50;20.00;;;;;1.61;89.63;100987.91;5028988;28;11517;-70
2023/12/04 03:10:15;;;;;;;;;25.50;23.00;;;;;1.56;89.79;100979.50;5044522;28;11521;-69
2023/12/04 03:12:42;;;;;;;;;25.00;21.25;;;;;1.53;89.62;100977.94;5043338;28;11516;-69
2023/12/04 03:15:10;;;;;;;;;20.25;17.50;;;;;1.49;89.72;100973.88;5033231;28;11586;-69
2023/12/04 03:17:37;;;;;;;;;26.50;22.50;;;;;1.43;89.21;100967.31;5039649;28;11511;-68
2023/12/04 03:20:04;;;;;;;;;23.75;17.25;;;;;1.46;89.90;100969.69;5049291;28;11505;-69
2023/12/04 03:22:31;;;;;;;;;21.00;18.50;;;;;1.54;90.02;100961.09;5032872;28;11511;-69
2023/12/04 03:24:57;;;;;;;;;32.75;23.25;;;;;1.53;89.64;100970.00;5040378;28;11591;-69
2023/12/04 03:27:24;;;;;;;;;25.25;21.75;;;;;1.45;89.92;100954.72;5047497;28;11554;-68
2023/12/04 03:29:50;;;;;;;;;25.00;22.50;;;;;1.49;89.92;100952.66;5032491;28;11519;-70
2023/12/04 03:32:17;;;;;;;;;20.75;18.75;;;;;1.49;89.36;100958.81;5050156;28;12267;-69
2023/12/04 03:34:43;;;;;;;;;23.50;19.00;;;;;1.51;89.51;100956.03;5042992;28;11587;-70
2023/12/04 03:37:10;;;;;;;;;22.00;19.50;;;;;1.47;89.31;100939.53;5045296;28;11586;-70
2023/12/04 03:39:37;;;;;;;;;21.50;18.50;;;;;1.57;89.27;100944.88;5052729;28;11630;-70
2023/12/04 03:42:04;;;;;;;;;25.75;19.75;;;;;1.57;89.21;100931.63;5070094;28;11507;-69
2023/12/04 03:44:30;;;;;;;;;19.25;16.75;;;;;1.59;89.24;100931.50;5032323;28;11543;-70
2023/12/04 03:46:57;;;;;;;;;21.75;19.25;;;;;1.64;88.77;100929.28;5048639;28;12248;-69
2023/12/04 03:49:23;;;;;;;;;28.25;19.25;;;;;1.60;88.70;100934.00;5042841;28;12223;-70
2023/12/04 03:51:50;;;;;;;;;19.25;19.25;;;;;1.56;88.38;100926.44;5030203;28;11523;-69
2023/12/04 03:54:17;;;;;;;;;23.25;21.25;;;;;1.49;88.69;100923.47;5050433;28;11501;-68
2023/12/04 03:56:43;;;;;;;;;25.50;22.50;;;;;1.55;88.70;100914.16;5048140;28;11548;-68
2023/12/04 03:59:10;;;;;;;;;26.75;24.75;;;;;1.55;88.53;100914.16;5050149;28;11535;-69
2023/12/04 04:01:37;;;;;;;;;22.50;19.25;;;;;1.57;88.36;100906.91;5050986;28;11531;-68
2023/12/04 04:04:03;;;;;;;;;22.00;17.50;;;;;1.55;88.32;100900.91;5050080;28;11540;-68
2023/12/04 04:06:30;;;;;;;;;26.25;23.25;;;;;1.48;88.13;100901.41;5032175;28;11517;-68
2023/12/04 04:08:57;;;;;;;;;24.50;20.00;;;;;1.53;88.05;100901.00;5026317;28;11649;-69
2023/12/04 04:11:23;;;;;;;;;21.75;20.50;;;;;1.43;87.72;100898.34;5029637;28;11516;-68
2023/12/04 04:13:50;;;;;;;;;23.25;20.25;;;;;1.44;87.85;100899.19;5049867;28;11528;-68
2023/12/04 04:16:16;;;;;;;;;23.25;20.75;;;;;1.48;88.22;100895.28;5050156;28;12252;-69
2023/12/04 04:18:43;;;;;;;;;25.75;23.75;;;;;1.45;88.08;100895.53;5035490;28;11504;-69
2023/12/04 04:21:10;;;;;;;;;23.00;18.00;;;;;1.46;87.66;100895.44;5035783;28;11550;-68
2023/12/04 04:23:36;;;;;;;;;21.50;18.75;;;;;1.40;87.89;100893.28;5050054;28;11537;-68
2023/12/04 04:26:03;;;;;;;;;29.75;23.50;;;;;1.41;88.00;100886.19;5050357;28;12368;-70
2023/12/04 04:28:29;;;;;;;;;23.25;20.00;;;;;1.40;87.30;100885.34;5046270;28;11510;-68
2023/12/04 04:30:56;;;;;;;;;22.50;21.00;;;;;1.28;87.85;100878.44;5053265;28;11479;-67
2023/12/04 04:33:22;;;;;;;;;19.50;19.50;;;;;1.29;87.61;100880.13;5031950;28;11562;-68
2023/12/04 04:35:49;;;;;;;;;18.75;16.50;;;;;1.28;87.71;100880.28;5054989;28;11533;-69
2023/12/04 04:38:15;;;;;;;;;17.00;16.75;;;;;1.36;87.49;100873.31;5056222;28;11513;-68
2023/12/04 04:40:43;;;;;;;;;22.00;18.25;;;;;1.42;87.35;100875.44;5031684;28;11552;-69
2023/12/04 04:43:10;;;;;;;;;20.50;18.00;;;;;1.44;86.78;100872.66;5064614;28;11527;-69
2023/12/04 04:45:36;;;;;;;;;22.25;20.50;;;;;1.40;87.20;100869.44;5054773;28;11524;-69
2023/12/04 04:48:03;;;;;;;;;18.75;17.25;;;;;1.33;86.85;100870.94;5044152;28;11510;-68
2023/12/04 04:50:30;;;;;;;;;24.75;17.50;;;;;1.37;86.91;100860.91;5031575;28;12276;-69
2023/12/04 04:52:56;;;;;;;;;30.75;23.00;;;;;1.38;86.65;100866.09;5043165;28;11511;-69
2023/12/04 04:55:22;;;;;;;;;29.75;17.25;;;;;1.31;86.94;100856.16;5046993;28;12276;-68
2023/12/04 04:58:09;;;;;;;;;24.25;20.00;;;;;1.37;86.51;100856.44;5030676;28;11624;-69
2023/12/04 05:00:35;;;;;;;;;22.00;15.25;;;;;1.30;86.67;100855.31;5041191;28;11555;-70
2023/12/04 05:03:02;;;;;;;;;21.50;19.50;;;;;1.34;86.25;100855.88;5054677;28;11540;-70
2023/12/04 05:05:28;;;;;;;;;24.50;22.00;;;;;1.42;86.22;100858.69;5069596;28;11521;-68
2023/12/04 05:07:55;;;;;;;;;23.25;17.25;;;;;1.43;86.15;100857.72;5039910;28;11560;-69
2023/12/04 05:10:22;;;;;;;;;15.75;11.50;;;;;1.42;86.12;100843.63;5033106;28;11524;-70
2023/12/04 05:12:48;;;;;;;;;24.00;20.00;;;;;1.40;85.89;100840.25;5057827;28;11528;-71
2023/12/04 05:15:15;;;;;;;;;20.25;16.75;;;;;1.53;85.78;100847.97;5049604;28;11584;-69
2023/12/04 05:17:42;;;;;;;;;32.75;26.50;;;;;1.43;85.84;100840.00;5040451;28;11637;-69
2023/12/04 05:20:08;;;;;;;;;23.00;17.75;;;;;1.46;85.40;100845.03;5044814;28;11579;-69
2023/12/04 05:22:35;;;;;;;;;19.50;17.50;;;;;1.46;85.64;100838.88;5042342;28;11528;-69
2023/12/04 05:25:02;;;;;;;;;20.75;17.75;;;;;1.51;85.34;100833.19;5050495;28;11507;-69
2023/12/04 05:27:28;;;;;;;;;22.50;19.75;;;;;1.50;85.48;100832.34;5049229;28;11551;-69
2023/12/04 05:29:54;;;;;;;;;29.25;22.50;;;;;1.51;85.24;100826.06;5038751;28;12274;-69
2023/12/04 05:32:21;;;;;;;;;25.50;18.25;;;;;1.51;85.35;100823.41;5055060;28;11559;-70
2023/12/04 05:34:47;;;;;;;;;26.75;18.50;;;;;1.53;84.79;100824.09;5053791;28;11509;-68
2023/12/04 05:37:14;;;;;;;;;23.00;19.25;;;;;1.50;84.95;100816.44;5051767;28;11675;-69
2023/12/04 05:39:41;;;;;;;;;22.00;18.75;;;;;1.48;84.93;100808.59;5031285;28;11498;-69
2023/12/04 05:42:08;;;;;;;;;26.50;23.50;;;;;1.42;85.22;100801.19;5032752;28;11542;-69
2023/12/04 05:44:34;;;;;;;;;20.50;17.50;;;;;1.40;84.92;100800.47;5049499;28;11523;-69
2023/12/04 05:47:01;;;;;;;;;24.00;18.75;;;;;1.43;85.11;100792.25;5050938;28;12238;-69
2023/12/04 05:49:29;;;;;;;;;21.25;19.00;;;;;1.43;84.59;100789.59;5047843;28;11532;-69
2023/12/04 05:51:56;;;;;;;;;20.25;20.25;;;;;1.40;85.26;100792.50;5053444;28;11573;-69
2023/12/04 05:54:22;;;;;;;;;14.00;13.50;;;;;1.40;84.97;100794.31;5047687;28;11526;-70
2023/12/04 05:56:49;;;;;;;;;27.00;20.00;;;;;1.42;84.82;100797.69;5049416;28;11568;-69
2023/12/04 05:59:16;;;;;;;;;19.25;17.50;;;;;1.37;85.29;100797.25;5052122;28;11522;-69
2023/12/04 06:01:42;;;;;;;;;14.50;14.50;;;;;1.42;85.09;100795.03;5052226;28;11544;-67
2023/12/04 06:04:08;;;;;;;;;25.25;17.75;;;;;1.41;84.39;100782.75;5036349;28;11529;-69
2023/12/04 06:06:35;;;;;;;;;19.75;19.00;;;;;1.36;84.72;100790.28;5050662;28;11509;-70
2023/12/04 06:09:02;;;;;;;;;22.50;19.75;;;;;1.36;84.21;100784.97;5052040;28;11572;-70
2023/12/04 06:11:28;;;;;;;;;21.00;20.00;;;;;1.37;84.57;100773.38;5052150;28;11523;-68
2023/12/04 06:13:55;;;;;;;;;21.25;19.00;;;;;1.35;84.27;100778.00;5049073;28;11705;-69
2023/12/04 06:16:22;;;;;;;;;22.50;14.50;;;;;1.36;84.62;100777.84;5033555;28;11541;-69
2023/12/04 06:18:48;;;;;;;;;19.75;14.75;;;;;1.41;84.88;100788.03;5034912;28;11554;-68
2023/12/04 06:21:15;;;;;;;;;23.00;17.00;;;;;1.44;84.08;100780.66;5033170;28;11587;-69
2023/12/04 06:23:42;;;;;;;;;19.50;17.50;;;;;1.40;84.61;100781.91;5046324;28;11488;-70
2023/12/04 06:26:09;;;;;;;;;23.75;17.00;;;;;1.46;84.38;100772.56;5050072;28;12242;-70
2023/12/04 06:28:36;;;;;;;;;22.25;17.50;;;;;1.51;84.24;100772.16;5049407;28;11525;-69
2023/12/04 06:31:03;;;;;;;;;23.75;19.75;;;;;1.46;84.12;100770.75;5033864;28;11524;-70
2023/12/04 06:33:29;;;;;;;;;16.75;14.75;;;;;1.47;84.29;100766.28;5051676;28;11518;-68
2023/12/04 06:35:56;;;;;;;;;24.75;18.25;;;;;1.51;84.10;100765.03;5055223;28;11609;-70
2023/12/04 06:38:25;;;;;;;;;23.25;18.25;;;;;1.48;84.36;100766.16;5028907;28;11642;-70
2023/12/04 06:40:51;;;;;;;;;24.75;22.00;;;;;1.44;84.45;100769.22;5049975;28;11550;-68
2023/12/04 06:43:18;;;;;;;;;21.25;15.75;;;;;1.49;84.17;100757.19;5033772;28;11661;-69
2023/12/04 06:45:45;;;;;;;;;23.00;19.50;;;;;1.56;84.19;100754.00;5051311;28;11512;-70
2023/12/04 06:48:16;;;;;;;;;18.50;16.50;;;;;1.63;84.04;100774.56;5013488;28;11511;-70
2023/12/04 06:50:43;;;;;;;;;17.75;12.75;;;;;1.65;83.87;100751.34;5052286;28;11501;-69
2023/12/04 06:53:09;;;;;;;;;18.75;17.50;;;;;1.54;84.06;100748.00;5052409;28;11523;-67
2023/12/04 06:55:36;;;;;;;;;26.50;21.75;;;;;1.57;83.63;100755.69;5031999;28;11568;-69
2023/12/04 06:58:03;;;;;;;;;23.25;22.50;;;;;1.54;83.29;100758.59;5029894;28;11574;-69
2023/12/04 07:00:30;;;;;;;;;20.75;19.00;;;;;1.54;83.46;100754.16;5047823;28;11593;-70
2023/12/04 07:02:56;;;;;;;;;17.25;16.75;;;;;1.60;83.50;100752.75;5043075;28;11508;-69
2023/12/04 07:05:23;;;;;;;;;31.00;22.50;;;;;1.61;83.21;100743.81;5039786;28;11510;-70
2023/12/04 07:07:49;;;;;;;;;19.25;17.25;;;;;1.58;82.90;100747.59;5040236;28;11525;-69
2023/12/04 07:10:16;;;;;;;;;20.00;18.75;;;;;1.60;82.75;100739.50;5026861;28;11609;-68
2023/12/04 07:12:43;;;;;;;;;23.25;18.25;;;;;1.62;82.54;100738.38;5058423;28;11502;-69
2023/12/04 07:15:11;;;;;;;;;20.00;17.00;;;;;1.63;82.34;100745.38;5051123;28;11513;-69
2023/12/04 07:17:38;;;;;;;;;17.25;16.00;;;;;1.64;82.18;100725.81;5039101;28;11522;-69
2023/12/04 07:20:08;;;;;;;;;18.50;15.00;;;;;1.66;82.47;100734.47;5054708;28;11656;-68
2023/12/04 07:22:34;;;;;;;;;19.25;17.00;;;;;1.64;82.26;100733.78;5031943;28;11538;-68
2023/12/04 07:25:06;;;;;;;;;18.50;17.00;;;;;1.61;82.18;100725.25;5047870;28;11501;-70
2023/12/04 07:27:34;;;;;;;;;19.25;17.50;;;;;1.63;82.06;100720.66;5048763;28;11511;-70
2023/12/04 07:30:02;;;;;;;;;20.00;17.25;;;;;1.59;82.14;100717.44;5048093;28;11501;-69
2023/12/04 07:32:28;;;;;;;;;23.00;21.25;;;;;1.54;81.77;100724.13;5027905;28;11519;-70
2023/12/04 07:34:55;;;;;;;;;20.75;18.50;;;;;1.63;81.62;100725.97;5048836;28;11612;-68
2023/12/04 07:37:21;;;;;;;;;19.75;19.00;;;;;1.66;81.67;100725.66;5031428;28;11712;-69
2023/12/04 07:39:48;;;;;;;;;21.25;18.25;;;;;1.55;81.74;100724.00;5048220;28;12231;-70
2023/12/04 07:42:14;;;;;;;;;18.00;18.00;;;;;1.65;81.83;100718.69;5044488;28;11502;-70
2023/12/04 07:44:41;;;;;;;;;23.50;17.00;;;;;1.67;81.00;100727.34;5042536;28;11657;-70
2023/12/04 07:47:07;;;;;;;;;18.50;16.25;;;;;1.67;80.98;100722.88;5041342;28;11489;-69
2023/12/04 07:49:34;;;;;;;;;22.00;17.75;;;;;1.71;81.33;100721.63;5038843;28;11586;-70
2023/12/04 07:52:00;;;;;;;;;18.25;16.50;;;;;1.72;80.62;100717.16;5046615;28;11506;-70
2023/12/04 07:54:28;;;;;;;;;13.50;13.50;;;;;1.71;80.98;100721.63;5049911;28;11509;-70
2023/12/04 07:56:54;;;;;;;;;15.75;13.25;;;;;1.75;80.58;100708.91;5045108;28;11560;-70
2023/12/04 07:59:21;;;;;;;;;15.00;12.75;;;;;1.71;81.08;100710.19;5026526;28;11532;-70
2023/12/04 08:01:47;;;;;;;;;19.25;13.50;;;;;1.75;80.69;100708.09;5049882;28;11649;-68
2023/12/04 08:04:14;;;;;;;;;19.75;18.75;;;;;1.73;80.29;100710.84;5049116;28;11542;-70
2023/12/04 08:06:41;;;;;;;;;16.75;13.75;;;;;1.65;80.53;100711.56;5025136;28;11650;-70
2023/12/04 08:09:09;;;;;;;;;19.75;19.50;;;;;1.72;80.24;100707.38;5029541;28;11507;-69
2023/12/04 08:11:36;;;;;;;;;17.75;15.25;;;;;1.69;79.99;100709.47;5049712;28;11627;-69
2023/12/04 08:14:03;;;;;;;;;21.50;18.00;;;;;1.73;79.65;100706.38;5032163;28;11516;-70
2023/12/04 08:16:30;;;;;;;;;20.00;19.50;;;;;1.77;79.77;100701.63;5049531;28;12223;-69
2023/12/04 08:18:57;;;;;;;;;17.75;16.00;;;;;1.81;79.61;100708.34;5028571;28;11631;-70
2023/12/04 08:21:23;;;;;;;;;19.00;17.00;;;;;1.85;79.22;100707.09;5046553;28;11581;-71
2023/12/04 08:23:51;;;;;;;;;17.00;14.75;;;;;1.86;79.12;100714.06;5048780;28;11506;-70
2023/12/04 08:26:24;;;;;;;;;16.75;15.75;;;;;1.90;78.99;100704.00;5049276;28;11615;-71
2023/12/04 08:28:51;;;;;;;;;23.50;17.50;;;;;1.85;79.15;100703.59;5029782;28;11439;-69
2023/12/04 08:31:18;;;;;;;;;17.00;14.75;;;;;1.89;78.87;100705.81;5032280;28;11482;-69
2023/12/04 08:33:45;;;;;;;;;14.00;14.00;;;;;1.88;78.98;100704.16;5046163;28;11517;-70
2023/12/04 08:36:12;;;;;;;;;18.00;17.75;;;;;1.95;78.45;100705.28;5052672;28;11491;-70
2023/12/04 08:38:38;;;;;;;;;22.25;18.00;;;;;1.87;78.34;100693.69;5047304;28;11517;-70
2023/12/04 08:41:05;;;;;;;;;14.75;14.75;;;;;1.92;78.24;100697.59;5026087;28;12161;-70
2023/12/04 08:43:32;;;;;;;;;23.75;13.75;;;;;1.97;78.05;100694.50;5042255;28;11490;-70
2023/12/04 08:46:00;;;;;;;;;22.50;15.50;;;;;1.96;77.83;100693.66;5055351;28;11510;-69
2023/12/04 08:48:27;;;;;;;;;25.25;19.50;;;;;1.84;77.79;100692.16;5052051;28;12287;-69
2023/12/04 08:50:54;;;;;;;;;21.25;16.50;;;;;1.84;77.84;100692.16;5029206;28;11586;-69
2023/12/04 08:53:20;;;;;;;;;18.00;15.25;;;;;1.91;77.70;100692.44;5034244;28;11511;-70
2023/12/04 08:55:47;;;;;;;;;20.25;14.00;;;;;1.89;77.50;100691.72;5018102;28;11513;-68
2023/12/04 08:58:14;;;;;;;;;23.25;19.75;;;;;1.92;76.87;100681.66;5058235;28;11541;-71
2023/12/04 09:00:42;;;;;;;;;27.25;19.00;;;;;1.87;76.31;100685.72;5062841;28;11507;-69
2023/12/04 09:03:13;;;;;;;;;17.00;14.25;;;;;1.89;76.69;100679.28;5062917;28;11532;-70
2023/12/04 09:05:51;;;;;;;;;13.50;13.50;;;;;1.90;76.79;100682.75;5051920;28;11645;-70
2023/12/04 09:08:18;;;;;;;;;14.75;14.00;;;;;2.11;79.23;100682.63;5029981;28;11584;-69
2023/12/04 09:11:03;;;;;;;;;16.00;13.75;;;;;1.97;76.89;100675.91;5034250;28;11626;-68
2023/12/04 09:13:48;;;;;;;;;18.25;15.00;;;;;1.91;76.08;100676.50;5053937;28;11579;-70
2023/12/04 09:16:14;;;;;;;;;19.00;14.50;;;;;1.85;75.17;100677.88;5036665;28;12280;-70
2023/12/04 09:18:41;;;;;;;;;19.25;12.75;;;;;1.94;74.44;100670.88;5048821;28;11524;-67
2023/12/04 09:21:08;;;;;;;;;13.25;13.00;;;;;2.04;73.67;100665.56;5037170;28;11517;-70
2023/12/04 09:23:35;;;;;;;;;11.25;11.00;;;;;1.97;73.63;100666.13;5052378;28;11517;-69
2023/12/04 09:26:02;;;;;;;;;11.75;11.50;;;;;2.04;72.84;100671.72;5033571;28;11531;-69
2023/12/04 09:28:28;;;;;;;;;14.50;13.00;;;;;2.15;72.81;100679.53;5036177;28;11510;-69
2023/12/04 09:30:55;;;;;;;;;16.75;14.50;;;;;2.07;73.03;100681.22;5051484;28;11538;-69
2023/12/04 09:33:25;;;;;;;;;16.25;15.00;;;;;2.05;72.48;100678.69;5049117;28;11629;-69
2023/12/04 09:35:51;;;;;;;;;14.00;14.00;;;;;2.18;72.20;100676.56;5039035;28;11521;-69
2023/12/04 09:38:18;;;;;;;;;13.75;10.00;;;;;2.24;72.17;100672.50;5033924;28;11518;-70
2023/12/04 09:40:45;;;;;;;;;14.25;13.75;;;;;2.31;72.05;100678.06;5032200;28;11755;-68
2023/12/04 09:43:12;;;;;;;;;13.25;11.00;;;;;2.27;72.03;100663.41;5034308;28;11489;-70
2023/12/04 09:45:39;;;;;;;;;16.75;14.75;;;;;2.19;71.73;100674.75;5036139;28;11534;-70
2023/12/04 09:48:09;;;;;;;;;15.00;13.00;;;;;2.21;71.54;100678.94;5052111;28;11505;-70
2023/12/04 09:50:36;;;;;;;;;15.25;15.00;;;;;2.26;71.31;100688.28;5051203;28;11668;-71
2023/12/04 09:53:04;;;;;;;;;11.75;11.75;;;;;2.14;71.26;100679.66;5040872;28;11510;-69
2023/12/04 09:55:30;;;;;;;;;11.25;10.25;;;;;2.25;71.33;100668.84;5024439;28;11591;-69
2023/12/04 09:57:57;;;;;;;;;11.25;9.75;;;;;2.24;70.70;100672.50;5036950;28;11530;-69
2023/12/04 10:00:24;;;;;;;;;19.75;13.75;;;;;2.23;70.60;100665.53;5048538;28;11538;-70
2023/12/04 10:02:52;;;;;;;;;17.25;13.00;;;;;2.26;70.13;100675.84;5022207;28;11550;-69
2023/12/04 10:05:20;;;;;;;;;13.75;12.25;;;;;2.30;70.30;100666.59;5052203;28;11515;-69
2023/12/04 10:07:48;;;;;;;;;11.50;10.75;;;;;2.32;70.40;100671.78;5051744;28;11484;-69
2023/12/04 10:10:14;;;;;;;;;12.50;10.75;;;;;2.35;70.00;100682.09;5052069;28;11558;-69
2023/12/04 10:12:42;;;;;;;;;17.00;11.50;;;;;2.26;69.50;100661.72;5031219;28;11500;-70
2023/12/04 10:15:11;;;;;;;;;12.75;12.75;;;;;2.36;69.42;100655.41;5030583;28;11484;-70
2023/12/04 10:17:43;;;;;;;;;15.25;13.00;;;;;2.30;69.73;100652.50;5061795;28;11538;-68
2023/12/04 10:20:12;;;;;;;;;12.00;10.00;;;;;2.24;68.68;100640.63;5067216;28;11577;-69
2023/12/04 10:22:51;;;;;;;;;13.00;9.25;;;;;2.29;68.87;100649.00;5049311;28;11483;-70
2023/12/04 10:25:20;;;;;;;;;14.00;12.75;;;;;2.31;68.58;100631.13;5046754;28;11498;-69
2023/12/04 10:27:46;;;;;;;;;15.75;13.75;;;;;2.33;68.76;100625.66;5048271;28;11602;-70
2023/12/04 10:30:31;;;;;;;;;13.00;10.75;;;;;2.41;68.24;100626.59;5025230;28;11494;-70
2023/12/04 10:33:00;;;;;;;;;13.75;11.75;;;;;2.40;68.66;100608.97;5032153;28;11609;-70
2023/12/04 10:35:37;;;;;;;;;11.75;10.75;;;;;2.35;68.77;100608.59;5051209;28;12233;-70
2023/12/04 10:38:05;;;;;;;;;11.00;9.75;;;;;2.39;68.82;100606.44;5030850;28;11564;-70
2023/12/04 10:40:34;;;;;;;;;15.25;11.50;;;;;2.29;69.10;100598.53;5048767;28;11613;-69
2023/12/04 10:43:17;;;;;;;;;16.75;11.00;;;;;2.43;69.22;100591.88;5048603;28;11515;-70
2023/12/04 10:45:45;;;;;;;;;15.00;15.00;;;;;2.42;69.58;100585.75;5050849;28;11496;-68
2023/12/04 10:48:14;;;;;;;;;15.00;14.00;;;;;2.39;69.41;100577.22;5033068;28;11529;-70
2023/12/04 10:50:43;;;;;;;;;12.75;10.50;;;;;2.34;69.24;100582.16;5051053;28;11621;-70
2023/12/04 10:53:12;;;;;;;;;12.25;11.00;;;;;2.46;69.11;100581.81;5050043;28;12202;-70
2023/12/04 10:55:40;;;;;;;;;21.50;16.25;;;;;2.50;68.51;100578.84;5050774;28;11604;-70
2023/12/04 10:58:11;;;;;;;;;11.00;11.00;;;;;2.55;68.78;100571.28;5050437;28;11554;-69
2023/12/04 11:00:41;;;;;;;;;12.00;11.00;;;;;2.51;68.75;100560.09;5049499;28;11516;-70
2023/12/04 11:03:09;;;;;;;;;12.00;12.00;;;;;2.55;68.83;100553.50;5045623;28;11591;-70
2023/12/04 11:05:40;;;;;;;;;11.00;11.00;;;;;2.54;68.75;100553.66;5047168;28;11532;-70
2023/12/04 11:08:11;;;;;;;;;11.75;10.25;;;;;2.58;68.80;100547.06;5048739;28;11509;-70
2023/12/04 11:10:47;;;;;;;;;14.00;13.00;;;;;2.54;68.91;100548.34;5029431;28;11572;-71
2023/12/04 11:13:43;;;;;;;;;13.50;11.25;;;;;2.46;68.65;100551.75;5033045;28;11493;-68
2023/12/04 11:16:48;;;;;;;;;14.50;10.75;;;;;2.47;68.46;100551.63;5042486;28;12293;-71
2023/12/04 11:19:20;;;;;;;;;13.00;13.00;;;;;2.49;68.43;100535.53;5028351;28;11516;-70